createdAt,value
2023-02-01T00:02:17.819Z,4.60
2023-02-01T00:04:44.653Z,4.50
2023-02-01T00:07:14.210Z,4.50
2023-02-01T00:09:41.191Z,4.50
2023-02-01T00:12:08.104Z,4.50
2023-02-01T00:14:39.575Z,4.50
2023-02-01T00:17:07.431Z,4.50
2023-02-01T00:19:35.546Z,4.50
2023-02-01T00:22:02.359Z,4.40
2023-02-01T00:24:29.328Z,4.40
2023-02-01T00:26:56.924Z,4.40
2023-02-01T00:29:24.051Z,4.50
2023-02-01T00:31:52.679Z,4.50
2023-02-01T00:34:20.565Z,4.50
2023-02-01T00:36:48.113Z,4.50
2023-02-01T00:39:15.737Z,4.50
2023-02-01T00:41:42.687Z,4.60
2023-02-01T00:44:09.792Z,4.60
2023-02-01T00:46:37.268Z,4.70
2023-02-01T00:49:04.371Z,4.70
2023-02-01T00:51:31.392Z,4.70
2023-02-01T00:53:58.751Z,4.60
2023-02-01T00:56:25.903Z,4.60
2023-02-01T00:58:52.789Z,5.00
2023-02-01T01:01:26.978Z,4.60
2023-02-01T01:03:59.601Z,4.50
2023-02-01T01:06:29.318Z,4.60
2023-02-01T01:08:57.860Z,4.60
2023-02-01T01:11:28.243Z,4.50
2023-02-01T01:13:56.626Z,4.50
2023-02-01T01:16:24.992Z,4.50
2023-02-01T01:18:52.670Z,4.40
2023-02-01T01:21:19.908Z,4.50
2023-02-01T01:23:48.571Z,4.50
2023-02-01T01:26:18.778Z,4.50
2023-02-01T01:28:45.838Z,4.50
2023-02-01T01:31:14.254Z,4.60
2023-02-01T01:33:41.253Z,4.60
2023-02-01T01:36:12.301Z,4.60
2023-02-01T01:38:40.019Z,4.70
2023-02-01T01:41:07.606Z,4.70
2023-02-01T01:43:59.427Z,4.70
2023-02-01T01:46:31.907Z,4.10
2023-02-01T01:49:10.541Z,4.80
2023-02-01T01:51:42.687Z,4.80
2023-02-01T01:54:18.590Z,4.80
2023-02-01T01:56:52.547Z,4.90
2023-02-01T01:59:20.185Z,4.90
2023-02-01T02:01:47.815Z,6.20
2023-02-01T02:04:14.953Z,5.00
2023-02-01T02:06:54.184Z,5.00
2023-02-01T02:09:21.036Z,5.20
2023-02-01T02:11:47.981Z,5.10
2023-02-01T02:14:18.584Z,5.20
2023-02-01T02:16:48.445Z,5.20
2023-02-01T02:19:56.755Z,5.20
2023-02-01T02:22:46.825Z,5.30
2023-02-01T02:25:34.911Z,5.30
2023-02-01T02:28:29.759Z,5.30
2023-02-01T02:31:14.739Z,5.40
2023-02-01T02:34:05.883Z,5.40
2023-02-01T02:36:53.776Z,5.50
2023-02-01T02:39:23.708Z,5.50
2023-02-01T02:42:28.832Z,5.50
2023-02-01T02:45:29.020Z,5.60
2023-02-01T02:48:14.400Z,5.50
2023-02-01T02:51:06.814Z,5.50
2023-02-01T02:54:20.718Z,5.50
2023-02-01T02:57:08.289Z,5.60
2023-02-01T02:59:55.036Z,5.60
2023-02-01T03:02:41.420Z,5.60
2023-02-01T03:05:08.357Z,5.60
2023-02-01T03:07:52.255Z,5.60
2023-02-01T03:10:41.814Z,5.60
2023-02-01T03:13:15.485Z,5.60
2023-02-01T03:16:01.065Z,5.60
2023-02-01T03:18:37.082Z,5.60
2023-02-01T03:21:09.504Z,5.60
2023-02-01T03:23:40.729Z,5.80
2023-02-01T03:26:12.996Z,5.60
2023-02-01T03:28:47.180Z,5.60
2023-02-01T03:31:15.185Z,5.60
2023-02-01T03:33:42.566Z,5.60
2023-02-01T03:36:35.349Z,5.70
2023-02-01T03:39:17.834Z,5.60
2023-02-01T03:41:52.631Z,5.60
2023-02-01T03:44:31.998Z,5.60
2023-02-01T03:47:26.429Z,5.60
2023-02-01T03:50:00.354Z,5.60
2023-02-01T03:52:42.282Z,5.60
2023-02-01T03:55:11.030Z,5.60
2023-02-01T03:57:44.477Z,5.60
2023-02-01T04:00:18.729Z,5.60
2023-02-01T04:02:45.723Z,5.70
2023-02-01T04:05:12.810Z,5.60
2023-02-01T04:07:39.817Z,5.70
2023-02-01T04:10:07.278Z,5.70
2023-02-01T04:12:34.118Z,5.70
2023-02-01T04:15:00.961Z,5.70
2023-02-01T04:17:27.869Z,7.10
2023-02-01T04:19:55.595Z,5.60
2023-02-01T04:22:22.418Z,5.60
2023-02-01T04:24:49.385Z,7.50
2023-02-01T04:27:16.665Z,5.50
2023-02-01T04:29:43.565Z,5.50
2023-02-01T04:32:10.361Z,6.30
2023-02-01T04:34:37.216Z,7.50
2023-02-01T04:37:04.389Z,5.50
2023-02-01T04:39:31.425Z,5.50
2023-02-01T04:41:58.250Z,5.50
2023-02-01T04:44:25.342Z,5.40
2023-02-01T04:46:52.125Z,5.40
2023-02-01T04:49:19.121Z,5.40
2023-02-01T04:51:45.936Z,5.40
2023-02-01T04:54:12.863Z,5.40
2023-02-01T04:56:39.656Z,5.40
2023-02-01T04:59:06.936Z,5.40
2023-02-01T05:01:34.263Z,5.40
2023-02-01T05:04:01.245Z,5.40
2023-02-01T05:06:27.947Z,5.40
2023-02-01T05:08:54.842Z,5.40
2023-02-01T05:11:40.381Z,5.40
2023-02-01T05:14:07.312Z,5.40
2023-02-01T05:16:34.326Z,5.40
2023-02-01T05:19:01.086Z,5.40
2023-02-01T05:21:28.128Z,5.40
2023-02-01T05:24:13.494Z,5.40
2023-02-01T05:26:41.694Z,5.40
2023-02-01T05:29:09.735Z,5.40
2023-02-01T05:31:37.223Z,5.40
2023-02-01T05:34:04.365Z,5.40
2023-02-01T05:36:31.276Z,5.50
2023-02-01T05:38:58.214Z,5.50
2023-02-01T05:41:25.547Z,5.50
2023-02-01T05:43:52.227Z,5.60
2023-02-01T05:46:19.187Z,6.20
2023-02-01T05:48:45.927Z,5.60
2023-02-01T05:51:13.493Z,5.60
2023-02-01T05:53:40.217Z,5.70
2023-02-01T05:56:07.272Z,5.70
2023-02-01T05:58:34.130Z,5.70
2023-02-01T06:01:01.757Z,5.70
2023-02-01T06:03:29.026Z,5.70
2023-02-01T06:05:56.279Z,5.70
2023-02-01T06:08:26.472Z,5.70
2023-02-01T06:10:59.804Z,5.70
2023-02-01T06:13:26.611Z,5.60
2023-02-01T06:15:53.547Z,5.60
2023-02-01T06:18:20.549Z,5.60
2023-02-01T06:20:56.317Z,5.50
2023-02-01T06:23:24.737Z,5.50
2023-02-01T06:26:00.827Z,5.40
2023-02-01T06:28:28.835Z,5.40
2023-02-01T06:30:55.940Z,5.40
2023-02-01T06:33:22.684Z,5.40
2023-02-01T06:35:49.401Z,5.30
2023-02-01T06:38:16.374Z,5.30
2023-02-01T06:40:43.289Z,5.30
2023-02-01T06:43:10.193Z,5.20
2023-02-01T06:45:36.855Z,5.20
2023-02-01T06:48:03.738Z,5.10
2023-02-01T06:50:30.452Z,5.10
2023-02-01T06:52:57.312Z,5.10
2023-02-01T06:55:24.014Z,5.10
2023-02-01T06:57:55.031Z,5.00
2023-02-01T07:00:25.839Z,5.00
2023-02-01T07:02:52.728Z,5.00
2023-02-01T07:05:19.418Z,5.00
2023-02-01T07:07:46.196Z,4.90
2023-02-01T07:10:13.505Z,4.90
2023-02-01T07:12:40.368Z,4.90
2023-02-01T07:15:07.743Z,4.90
2023-02-01T07:17:34.451Z,4.90
2023-02-01T07:20:02.468Z,4.90
2023-02-01T07:22:30.246Z,4.80
2023-02-01T07:24:56.955Z,4.80
2023-02-01T07:27:25.927Z,4.80
2023-02-01T07:29:53.630Z,5.60
2023-02-01T07:32:20.378Z,4.80
2023-02-01T07:34:47.063Z,4.80
2023-02-01T07:37:13.895Z,4.80
2023-02-01T07:39:40.572Z,4.80
2023-02-01T07:42:07.832Z,4.80
2023-02-01T07:44:34.544Z,4.80
2023-02-01T07:47:01.238Z,4.80
2023-02-01T07:49:28.055Z,4.90
2023-02-01T07:51:54.791Z,4.90
2023-02-01T07:54:21.440Z,5.00
2023-02-01T07:56:48.107Z,5.00
2023-02-01T07:59:16.105Z,5.00
2023-02-01T08:01:43.296Z,5.00
2023-02-01T08:04:13.324Z,5.10
2023-02-01T08:06:41.074Z,5.10
2023-02-01T08:09:12.291Z,5.20
2023-02-01T08:11:39.102Z,7.00
2023-02-01T08:14:06.883Z,5.20
2023-02-01T08:16:36.177Z,5.20
2023-02-01T08:19:03.433Z,5.20
2023-02-01T08:21:39.216Z,5.10
2023-02-01T08:24:07.379Z,5.10
2023-02-01T08:26:34.191Z,5.10
2023-02-01T08:29:04.045Z,5.10
2023-02-01T08:31:31.853Z,5.10
2023-02-01T08:34:01.707Z,5.10
2023-02-01T08:36:30.541Z,5.10
2023-02-01T08:38:57.363Z,5.10
2023-02-01T08:41:26.743Z,5.10
2023-02-01T08:43:55.072Z,5.20
2023-02-01T08:46:22.577Z,5.20
2023-02-01T08:48:50.102Z,5.20
2023-02-01T08:51:19.015Z,5.20
2023-02-01T08:53:46.015Z,5.30
2023-02-01T08:56:14.391Z,5.30
2023-02-01T08:58:41.511Z,5.30
2023-02-01T09:01:10.560Z,5.30
2023-02-01T09:03:37.440Z,5.40
2023-02-01T09:06:06.613Z,5.40
2023-02-01T09:08:34.259Z,5.40
2023-02-01T09:11:06.593Z,5.50
2023-02-01T09:13:34.729Z,5.50
2023-02-01T09:16:01.703Z,5.50
2023-02-01T09:18:28.509Z,5.60
2023-02-01T09:20:55.277Z,5.70
2023-02-01T09:23:22.053Z,7.00
2023-02-01T09:25:51.316Z,5.80
2023-02-01T09:28:18.989Z,5.80
2023-02-01T09:30:45.769Z,6.70
2023-02-01T09:33:12.555Z,6.00
2023-02-01T09:35:39.338Z,6.00
2023-02-01T09:38:06.358Z,6.10
2023-02-01T09:40:35.589Z,6.20
2023-02-01T09:43:20.003Z,6.30
2023-02-01T09:46:15.638Z,6.30
2023-02-01T09:48:44.947Z,6.40
2023-02-01T09:51:22.709Z,6.40
2023-02-01T09:54:06.037Z,6.40
2023-02-01T09:56:45.486Z,6.50
2023-02-01T09:59:24.772Z,6.50
2023-02-01T10:01:51.660Z,6.50
2023-02-01T10:04:19.034Z,6.60
2023-02-01T10:07:04.363Z,6.60
2023-02-01T10:09:40.304Z,6.70
2023-02-01T10:12:39.387Z,6.70
2023-02-01T10:15:31.525Z,6.60
2023-02-01T10:18:23.790Z,6.60
2023-02-01T10:21:13.160Z,6.70
2023-02-01T10:24:17.655Z,6.70
2023-02-01T10:26:52.195Z,6.70
2023-02-01T10:29:27.236Z,6.70
2023-02-01T10:31:54.166Z,6.60
2023-02-01T10:34:27.134Z,6.60
2023-02-01T10:37:09.531Z,6.70
2023-02-01T10:39:37.963Z,6.70
2023-02-01T10:42:04.895Z,6.70
2023-02-01T10:44:35.927Z,6.60
2023-02-01T10:47:02.648Z,6.60
2023-02-01T10:49:38.351Z,6.60
2023-02-01T10:52:16.345Z,6.70
2023-02-01T10:54:43.599Z,6.70
2023-02-01T10:57:22.782Z,6.80
2023-02-01T10:59:49.478Z,6.90
2023-02-01T11:02:29.039Z,6.90
2023-02-01T11:05:10.336Z,8.30
2023-02-01T11:07:38.411Z,6.90
2023-02-01T11:10:05.902Z,6.90
2023-02-01T11:12:38.646Z,7.00
2023-02-01T11:15:19.554Z,7.00
2023-02-01T11:17:48.903Z,6.90
2023-02-01T11:20:21.709Z,6.90
2023-02-01T11:22:56.457Z,6.90
2023-02-01T11:25:24.749Z,6.90
2023-02-01T11:27:55.527Z,6.90
2023-02-01T11:30:34.291Z,7.00
2023-02-01T11:33:03.585Z,7.00
2023-02-01T11:35:32.402Z,7.00
2023-02-01T11:38:00.254Z,7.00
2023-02-01T11:40:36.905Z,7.00
2023-02-01T11:43:28.791Z,7.00
2023-02-01T11:46:01.275Z,6.90
2023-02-01T11:48:31.305Z,6.90
2023-02-01T11:51:00.827Z,8.00
2023-02-01T11:53:56.732Z,6.90
2023-02-01T11:56:43.744Z,7.00
2023-02-01T11:59:24.247Z,7.00
2023-02-01T12:01:59.023Z,7.00
2023-02-01T12:04:46.059Z,7.00
2023-02-01T12:07:38.203Z,7.10
2023-02-01T12:10:20.072Z,5.40
2023-02-01T12:13:18.328Z,7.20
2023-02-01T12:16:03.293Z,7.20
2023-02-01T12:19:17.233Z,7.30
2023-02-01T12:21:59.966Z,7.40
2023-02-01T12:24:41.033Z,7.50
2023-02-01T12:27:47.739Z,7.50
2023-02-01T12:30:17.481Z,7.50
2023-02-01T12:33:22.863Z,7.50
2023-02-01T12:36:13.399Z,7.30
2023-02-01T12:39:07.431Z,7.20
2023-02-01T12:41:34.050Z,7.20
2023-02-01T12:44:22.361Z,7.10
2023-02-01T12:47:30.720Z,7.10
2023-02-01T12:50:19.942Z,7.10
2023-02-01T12:52:52.519Z,7.10
2023-02-01T12:55:25.251Z,7.10
2023-02-01T12:58:18.931Z,7.10
2023-02-01T13:00:50.024Z,7.10
2023-02-01T13:03:30.346Z,7.10
2023-02-01T13:06:08.124Z,7.00
2023-02-01T13:08:58.545Z,7.00
2023-02-01T13:11:43.537Z,7.00
2023-02-01T13:14:33.257Z,7.10
2023-02-01T13:17:25.921Z,7.10
2023-02-01T13:20:06.167Z,7.10
2023-02-01T13:22:38.076Z,7.10
2023-02-01T13:25:36.159Z,7.10
2023-02-01T13:28:13.608Z,7.10
2023-02-01T13:31:10.855Z,7.10
2023-02-01T13:33:52.815Z,7.00
2023-02-01T13:36:21.870Z,7.00
2023-02-01T13:39:24.449Z,7.00
2023-02-01T13:42:02.561Z,7.00
2023-02-01T13:44:57.962Z,7.10
2023-02-01T13:47:34.895Z,7.10
2023-02-01T13:50:13.675Z,7.10
2023-02-01T13:52:44.524Z,7.10
2023-02-01T13:55:14.151Z,7.10
2023-02-01T13:57:44.868Z,7.20
2023-02-01T14:00:33.711Z,7.20
2023-02-01T14:03:02.006Z,7.20
2023-02-01T14:05:29.041Z,7.20
2023-02-01T14:08:08.530Z,7.20
2023-02-01T14:10:56.879Z,7.10
2023-02-01T14:13:40.877Z,7.00
2023-02-01T14:16:07.556Z,6.90
2023-02-01T14:18:43.009Z,6.90
2023-02-01T14:21:37.376Z,6.90
2023-02-01T14:24:25.142Z,6.80
2023-02-01T14:26:53.918Z,6.80
2023-02-01T14:29:27.535Z,6.80
2023-02-01T14:32:19.003Z,6.70
2023-02-01T14:34:48.723Z,6.70
2023-02-01T14:37:18.195Z,6.70
2023-02-01T14:39:47.679Z,6.70
2023-02-01T14:42:35.565Z,6.70
2023-02-01T14:45:24.349Z,6.60
2023-02-01T14:47:53.062Z,6.50
2023-02-01T14:50:34.762Z,6.40
2023-02-01T14:53:14.077Z,6.40
2023-02-01T14:56:04.019Z,6.30
2023-02-01T14:58:48.616Z,6.30
2023-02-01T15:01:24.019Z,6.30
2023-02-01T15:04:09.844Z,6.10
2023-02-01T15:06:48.539Z,6.00
2023-02-01T15:09:20.979Z,5.90
2023-02-01T15:12:12.057Z,5.70
2023-02-01T15:14:41.258Z,5.70
2023-02-01T15:17:24.322Z,5.70
2023-02-01T15:20:04.861Z,5.70
2023-02-01T15:22:35.721Z,5.60
2023-02-01T15:25:04.243Z,5.60
2023-02-01T15:27:32.736Z,5.60
2023-02-01T15:30:17.032Z,5.80
2023-02-01T15:32:43.731Z,5.70
2023-02-01T15:35:33.628Z,5.70
2023-02-01T15:38:19.872Z,5.90
2023-02-01T15:41:05.652Z,6.00
2023-02-01T15:43:56.470Z,6.10
2023-02-01T15:46:33.110Z,6.10
2023-02-01T15:49:00.201Z,6.20
2023-02-01T15:51:30.425Z,6.30
2023-02-01T15:54:00.756Z,6.30
2023-02-01T15:56:37.995Z,6.30
2023-02-01T15:59:13.229Z,7.80
2023-02-01T16:01:42.997Z,6.20
2023-02-01T16:04:24.804Z,6.10
2023-02-01T16:06:52.993Z,6.00
2023-02-01T16:09:26.061Z,5.90
2023-02-01T16:11:57.263Z,5.90
2023-02-01T16:14:25.020Z,5.90
2023-02-01T16:16:53.631Z,5.90
2023-02-01T16:19:20.769Z,7.80
2023-02-01T16:21:48.074Z,5.90
2023-02-01T16:24:15.035Z,7.00
2023-02-01T16:26:42.014Z,5.90
2023-02-01T16:29:09.416Z,5.80
2023-02-01T16:31:39.879Z,5.80
2023-02-01T16:34:07.555Z,5.70
2023-02-01T16:36:35.113Z,5.70
2023-02-01T16:39:03.953Z,5.60
2023-02-01T16:41:30.892Z,5.50
2023-02-01T16:43:57.764Z,5.50
2023-02-01T16:46:27.638Z,5.40
2023-02-01T16:48:58.407Z,5.40
2023-02-01T16:51:27.836Z,5.40
2023-02-01T16:53:55.190Z,5.40
2023-02-01T16:56:32.533Z,5.40
2023-02-01T16:58:59.551Z,5.50
2023-02-01T17:01:26.895Z,5.50
2023-02-01T17:03:53.908Z,5.60
2023-02-01T17:06:24.724Z,5.70
2023-02-01T17:08:54.548Z,5.80
2023-02-01T17:11:21.308Z,6.90
2023-02-01T17:13:48.388Z,5.70
2023-02-01T17:16:32.440Z,5.70
2023-02-01T17:19:04.468Z,5.70
2023-02-01T17:21:43.688Z,5.80
2023-02-01T17:24:15.641Z,5.80
2023-02-01T17:26:43.529Z,5.80
2023-02-01T17:29:10.856Z,5.90
2023-02-01T17:31:44.208Z,5.90
2023-02-01T17:34:12.765Z,6.00
2023-02-01T17:36:42.593Z,6.00
2023-02-01T17:39:10.212Z,6.10
2023-02-01T17:41:37.906Z,6.10
2023-02-01T17:44:05.258Z,6.10
2023-02-01T17:46:32.496Z,6.10
2023-02-01T17:48:59.496Z,5.80
2023-02-01T17:51:28.211Z,5.50
2023-02-01T17:53:55.073Z,5.30
2023-02-01T17:56:24.832Z,5.30
2023-02-01T17:58:51.809Z,5.20
2023-02-01T18:01:24.210Z,5.10
2023-02-01T18:03:52.007Z,5.10
2023-02-01T18:06:23.937Z,5.00
2023-02-01T18:08:51.187Z,4.90
2023-02-01T18:11:20.534Z,4.80
2023-02-01T18:13:48.516Z,4.70
2023-02-01T18:16:28.208Z,4.60
2023-02-01T18:18:55.183Z,4.50
2023-02-01T18:21:23.519Z,4.40
2023-02-01T18:23:50.694Z,4.40
2023-02-01T18:26:18.970Z,4.20
2023-02-01T18:28:45.809Z,4.20
2023-02-01T18:31:32.609Z,4.10
2023-02-01T18:34:00.324Z,4.00
2023-02-01T18:36:30.719Z,4.00
2023-02-01T18:38:57.897Z,3.90
2023-02-01T18:41:26.004Z,3.90
2023-02-01T18:43:53.172Z,3.80
2023-02-01T18:46:22.003Z,3.80
2023-02-01T18:48:48.827Z,3.70
2023-02-01T18:51:20.365Z,3.70
2023-02-01T18:53:48.499Z,3.60
2023-02-01T18:56:19.900Z,3.60
2023-02-01T18:58:46.612Z,3.60
2023-02-01T19:01:21.217Z,3.50
2023-02-01T19:03:51.900Z,3.50
2023-02-01T19:06:21.868Z,3.50
2023-02-01T19:08:48.806Z,3.50
2023-02-01T19:11:15.489Z,3.40
2023-02-01T19:13:42.389Z,3.40
2023-02-01T19:16:11.613Z,3.40
2023-02-01T19:18:39.180Z,3.40
2023-02-01T19:21:11.431Z,3.30
2023-02-01T19:23:42.355Z,3.40
2023-02-01T19:26:13.577Z,3.40
2023-02-01T19:28:40.861Z,4.00
2023-02-01T19:31:09.021Z,3.40
2023-02-01T19:33:36.457Z,3.30
2023-02-01T19:36:06.014Z,3.40
2023-02-01T19:38:33.612Z,3.40
2023-02-01T19:41:00.464Z,3.40
2023-02-01T19:43:28.610Z,4.50
2023-02-01T19:45:56.048Z,3.20
2023-02-01T19:48:23.339Z,3.20
2023-02-01T19:50:50.175Z,3.10
2023-02-01T19:53:16.906Z,3.10
2023-02-01T19:55:47.271Z,3.10
2023-02-01T19:58:14.612Z,3.10
2023-02-01T20:00:40.945Z,3.00
2023-02-01T20:03:08.307Z,3.00
2023-02-01T20:05:35.044Z,3.00
2023-02-01T20:08:02.160Z,3.00
2023-02-01T20:10:29.636Z,2.90
2023-02-01T20:12:56.332Z,2.90
2023-02-01T20:15:26.917Z,2.90
2023-02-01T20:17:53.942Z,2.90
2023-02-01T20:20:20.686Z,2.80
2023-02-01T20:22:47.532Z,4.90
2023-02-01T20:25:14.264Z,2.80
2023-02-01T20:27:41.874Z,2.80
2023-02-01T20:30:09.738Z,2.70
2023-02-01T20:32:37.987Z,2.80
2023-02-01T20:35:05.082Z,2.80
2023-02-01T20:37:31.942Z,2.80
2023-02-01T20:39:58.889Z,3.60
2023-02-01T20:42:25.888Z,2.80
2023-02-01T20:44:52.730Z,2.80
2023-02-01T20:47:19.560Z,2.80
2023-02-01T20:49:46.445Z,2.70
2023-02-01T20:52:13.404Z,2.70
2023-02-01T20:54:40.310Z,2.60
2023-02-01T20:57:07.444Z,3.50
2023-02-01T20:59:34.350Z,2.60
2023-02-01T21:02:01.527Z,2.60
2023-02-01T21:04:29.558Z,2.60
2023-02-01T21:06:58.211Z,2.70
2023-02-01T21:09:26.040Z,2.70
2023-02-01T21:11:53.487Z,2.70
2023-02-01T21:14:21.064Z,2.70
2023-02-01T21:16:48.685Z,2.70
2023-02-01T21:19:16.966Z,2.70
2023-02-01T21:21:43.997Z,2.70
2023-02-01T21:24:10.955Z,2.60
2023-02-01T21:26:43.812Z,2.60
2023-02-01T21:29:14.369Z,2.60
2023-02-01T21:31:42.644Z,2.50
2023-02-01T21:34:10.012Z,2.60
2023-02-01T21:36:37.063Z,2.50
2023-02-01T21:39:06.351Z,2.50
2023-02-01T21:41:53.027Z,2.50
2023-02-01T21:44:20.372Z,2.50
2023-02-01T21:46:47.464Z,2.40
2023-02-01T21:49:14.640Z,2.30
2023-02-01T21:51:42.667Z,2.80
2023-02-01T21:54:11.211Z,3.10
2023-02-01T21:56:38.735Z,2.30
2023-02-01T21:59:05.725Z,2.30
2023-02-01T22:01:34.032Z,3.50
2023-02-01T22:04:01.059Z,2.30
2023-02-01T22:06:30.677Z,2.20
2023-02-01T22:08:58.474Z,2.20
2023-02-01T22:11:26.115Z,2.10
2023-02-01T22:13:53.438Z,2.50
2023-02-01T22:16:21.762Z,2.00
2023-02-01T22:18:50.360Z,2.20
2023-02-01T22:21:18.202Z,1.90
2023-02-01T22:23:45.574Z,1.90
2023-02-01T22:26:14.440Z,1.80
2023-02-01T22:28:41.569Z,1.80
2023-02-01T22:31:10.145Z,2.70
2023-02-01T22:33:37.865Z,1.80
2023-02-01T22:36:06.048Z,1.70
2023-02-01T22:38:34.631Z,1.70
2023-02-01T22:41:06.101Z,1.70
2023-02-01T22:43:34.920Z,1.70
2023-02-01T22:46:05.828Z,1.60
2023-02-01T22:48:36.850Z,1.60
2023-02-01T22:51:04.882Z,1.50
2023-02-01T22:53:32.585Z,1.50
2023-02-01T22:56:07.390Z,1.50
2023-02-01T22:58:37.334Z,1.50
2023-02-01T23:01:16.589Z,1.80
2023-02-01T23:03:43.431Z,1.40
2023-02-01T23:06:10.452Z,1.50
2023-02-01T23:08:39.607Z,1.50
2023-02-01T23:11:09.477Z,1.50
2023-02-01T23:13:37.446Z,1.50
2023-02-01T23:16:09.859Z,1.40
2023-02-01T23:18:37.161Z,1.40
2023-02-01T23:21:15.829Z,1.50
2023-02-01T23:23:48.414Z,1.40
2023-02-01T23:26:15.755Z,1.60
2023-02-01T23:28:43.165Z,1.40
2023-02-01T23:31:12.597Z,1.40
2023-02-01T23:33:40.455Z,1.40
2023-02-01T23:36:11.787Z,1.30
2023-02-01T23:38:38.472Z,1.40
2023-02-01T23:41:07.380Z,1.30
2023-02-01T23:43:53.159Z,1.30
2023-02-01T23:46:20.508Z,1.40
2023-02-01T23:48:48.972Z,1.30
2023-02-01T23:51:16.689Z,1.30
2023-02-01T23:53:44.899Z,1.30
2023-02-01T23:56:33.566Z,1.40
2023-02-01T23:59:06.256Z,1.30
